Time;durP1;ratioP1;P1;durP2;ratioP2;P2;SDS_P1;SDS_P2;PMS_P1;PMS_P2;Temp;Humidity;BMP_temperature;BMP_pressure;BME280_temperature;BME280_humidity;BME280_pressure;Samples;Min_cycle;Max_cycle;Signal;HPM_P1;HPM_P2
2022/08/07 00:00:32;;;;;;;;;;;26.40;67.10;;;;;;5097735;28;19955;-74
2022/08/07 00:02:58;;;;;;;;;;;26.50;67.20;;;;;;5097474;28;20108;-74
2022/08/07 00:05:25;;;;;;;;;;;26.40;67.10;;;;;;5097646;28;20003;-74
2022/08/07 00:07:51;;;;;;;;;;;26.40;67.20;;;;;;5097577;28;20011;-74
2022/08/07 00:10:16;;;;;;;;;;;26.40;67.10;;;;;;5097350;28;19908;-74
2022/08/07 00:12:44;;;;;;;;;;;26.30;67.00;;;;;;5097923;28;19915;-74
2022/08/07 00:15:10;;;;;;;;;;;26.40;67.10;;;;;;5097367;28;19990;-74
2022/08/07 00:17:35;;;;;;;;;;;26.40;67.10;;;;;;5097326;28;19943;-74
2022/08/07 00:20:01;;;;;;;;;;;26.40;67.10;;;;;;5095953;28;19908;-74
2022/08/07 00:22:27;;;;;;;;;;;26.30;67.10;;;;;;5095858;28;20266;-74
2022/08/07 00:24:52;;;;;;;;;;;26.30;67.10;;;;;;5097156;28;20369;-73
2022/08/07 00:27:18;;;;;;;;;;;26.30;67.10;;;;;;5097441;28;19912;-73
2022/08/07 00:29:43;;;;;;;;;;;26.30;67.10;;;;;;5097156;28;19909;-74
2022/08/07 00:32:11;;;;;;;;;;;26.30;67.10;;;;;;5097200;28;19908;-73
2022/08/07 00:34:36;;;;;;;;;;;26.20;67.20;;;;;;5095893;28;19993;-73
2022/08/07 00:37:02;;;;;;;;;;;26.20;67.20;;;;;;5096902;28;19924;-74
2022/08/07 00:39:27;;;;;;;;;;;26.20;67.20;;;;;;5096670;28;19962;-74
2022/08/07 00:41:54;;;;;;;;;;;26.20;67.20;;;;;;5096674;28;20427;-74
2022/08/07 00:44:20;;;;;;;;;;;26.20;67.20;;;;;;5096442;28;19919;-74
2022/08/07 00:46:45;;;;;;;;;;;26.20;67.20;;;;;;5097104;28;19912;-73
2022/08/07 00:49:11;;;;;;;;;;;26.20;67.70;;;;;;5096831;28;19995;-74
2022/08/07 00:51:36;;;;;;;;;;;26.20;67.00;;;;;;5096765;28;19908;-74
2022/08/07 00:54:02;;;;;;;;;;;26.10;66.90;;;;;;5096601;28;19950;-74
2022/08/07 00:56:28;;;;;;;;;;;26.10;67.00;;;;;;5096430;28;20318;-74
2022/08/07 00:58:54;;;;;;;;;;;26.10;67.00;;;;;;5096955;28;19908;-74
2022/08/07 01:01:21;;;;;;;;;;;26.10;67.00;;;;;;5096287;28;19915;-74
2022/08/07 01:03:47;;;;;;;;;;;26.10;67.00;;;;;;5096073;28;20273;-74
2022/08/07 01:06:13;;;;;;;;;;;26.10;67.10;;;;;;5095123;28;19912;-73
2022/08/07 01:08:40;;;;;;;;;;;26.10;67.10;;;;;;5096095;28;20255;-73
2022/08/07 01:11:05;;;;;;;;;;;26.10;67.10;;;;;;5096350;28;19908;-73
2022/08/07 01:13:31;;;;;;;;;;;26.10;67.00;;;;;;5096452;28;19915;-74
2022/08/07 01:15:57;;;;;;;;;;;26.10;67.10;;;;;;5096168;28;20255;-74
2022/08/07 01:18:23;;;;;;;;;;;26.10;67.00;;;;;;5094833;28;20003;-73
2022/08/07 01:21:12;;;;;;;;;;;26.00;67.00;;;;;;5095982;28;20393;-73
2022/08/07 01:23:38;;;;;;;;;;;26.10;67.00;;;;;;5090187;28;19912;-74
2022/08/07 01:26:04;;;;;;;;;;;26.10;67.00;;;;;;5096107;28;19912;-74
2022/08/07 01:28:30;;;;;;;;;;;26.00;67.00;;;;;;5096025;28;19909;-74
2022/08/07 01:30:55;;;;;;;;;;;26.00;67.00;;;;;;5095829;28;19915;-73
2022/08/07 01:33:22;;;;;;;;;;;26.00;67.00;;;;;;5095635;28;19954;-75
2022/08/07 01:35:47;;;;;;;;;;;26.00;67.00;;;;;;5094695;28;19931;-74
2022/08/07 01:38:13;;;;;;;;;;;26.00;67.00;;;;;;5096196;28;19924;-75
2022/08/07 01:40:39;;;;;;;;;;;26.00;67.00;;;;;;5095993;28;19913;-74
2022/08/07 01:43:05;;;;;;;;;;;25.90;67.00;;;;;;5095449;28;19919;-73
2022/08/07 01:45:32;;;;;;;;;;;26.00;67.10;;;;;;5095459;28;19924;-74
2022/08/07 01:47:58;;;;;;;;;;;25.90;67.10;;;;;;5095285;28;19908;-73
2022/08/07 01:50:24;;;;;;;;;;;25.90;67.10;;;;;;5095660;28;19915;-76
2022/08/07 01:52:51;;;;;;;;;;;26.00;67.30;;;;;;5094350;28;19984;-74
2022/08/07 01:55:17;;;;;;;;;;;25.90;67.20;;;;;;5095472;28;19954;-75
2022/08/07 01:57:44;;;;;;;;;;;26.00;67.20;;;;;;5095721;28;19912;-75
2022/08/07 02:00:11;;;;;;;;;;;26.00;67.20;;;;;;5095107;28;20015;-74
2022/08/07 02:02:57;;;;;;;;;;;26.00;67.20;;;;;;5093779;28;20007;-74
2022/08/07 02:05:36;;;;;;;;;;;26.00;67.10;;;;;;5094846;28;20354;-74
2022/08/07 02:08:04;;;;;;;;;;;26.00;67.10;;;;;;5095500;28;19954;-74
2022/08/07 02:10:31;;;;;;;;;;;25.90;67.00;;;;;;5095422;28;20300;-74
2022/08/07 02:12:58;;;;;;;;;;;25.90;67.00;;;;;;5095214;28;19908;-74
2022/08/07 02:15:25;;;;;;;;;;;25.90;67.10;;;;;;5095220;28;19912;-74
2022/08/07 02:17:52;;;;;;;;;;;25.80;67.10;;;;;;5094914;28;19908;-73
2022/08/07 02:20:18;;;;;;;;;;;25.80;67.10;;;;;;5095098;28;19954;-73
2022/08/07 02:22:45;;;;;;;;;;;25.80;67.10;;;;;;5094685;28;19908;-73
2022/08/07 02:25:12;;;;;;;;;;;25.80;67.30;;;;;;5094747;28;20010;-74
2022/08/07 02:27:38;;;;;;;;;;;25.80;67.30;;;;;;5094649;28;19912;-74
2022/08/07 02:30:04;;;;;;;;;;;25.80;67.30;;;;;;5094714;28;20374;-74
2022/08/07 02:32:31;;;;;;;;;;;25.70;67.30;;;;;;5095602;28;19912;-75
2022/08/07 02:34:57;;;;;;;;;;;25.70;67.30;;;;;;5094666;28;19912;-74
2022/08/07 02:37:23;;;;;;;;;;;25.70;67.30;;;;;;5094622;28;20374;-74
2022/08/07 02:39:49;;;;;;;;;;;25.70;67.30;;;;;;5094596;28;19908;-74
2022/08/07 02:42:16;;;;;;;;;;;25.70;67.30;;;;;;5094365;28;19908;-74
2022/08/07 02:44:43;;;;;;;;;;;25.70;67.40;;;;;;5094536;28;20014;-74
2022/08/07 02:47:09;;;;;;;;;;;25.70;67.40;;;;;;5094736;28;19923;-74
2022/08/07 02:49:35;;;;;;;;;;;25.70;67.40;;;;;;5094882;28;19930;-74
2022/08/07 02:52:02;;;;;;;;;;;25.70;67.50;;;;;;5094728;28;20346;-74
2022/08/07 02:54:28;;;;;;;;;;;25.60;67.40;;;;;;5094323;28;19909;-75
2022/08/07 02:56:55;;;;;;;;;;;25.60;67.40;;;;;;5094398;28;20308;-75
2022/08/07 02:59:23;;;;;;;;;;;25.70;67.60;;;;;;5093103;28;19995;-75
2022/08/07 03:01:48;;;;;;;;;;;25.60;67.70;;;;;;5094118;28;19912;-75
2022/08/07 03:04:15;;;;;;;;;;;25.60;67.70;;;;;;5093526;28;19911;-75
2022/08/07 03:06:45;;;;;;;;;;;25.60;67.70;;;;;;5094511;28;19978;-75
2022/08/07 03:09:11;;;;;;;;;;;24.10;67.00;;;;;;5094613;28;20011;-74
2022/08/07 03:11:36;;;;;;;;;;;25.60;67.80;;;;;;5093058;28;19951;-74
2022/08/07 03:14:03;;;;;;;;;;;25.60;67.90;;;;;;5094248;28;20006;-74
2022/08/07 03:16:32;;;;;;;;;;;25.70;67.90;;;;;;5094284;28;19912;-74
2022/08/07 03:18:58;;;;;;;;;;;25.70;68.10;;;;;;5102992;28;19914;-73
2022/08/07 03:21:24;;;;;;;;;;;25.70;68.00;;;;;;5114502;28;19999;-74
2022/08/07 03:23:52;;;;;;;;;;;25.70;67.90;;;;;;5114356;28;19911;-74
2022/08/07 03:26:18;;;;;;;;;;;25.80;67.80;;;;;;5114466;28;19915;-73
2022/08/07 03:28:45;;;;;;;;;;;25.80;67.80;;;;;;5115131;28;20415;-74
2022/08/07 03:31:20;;;;;;;;;;;25.80;67.70;;;;;;5114361;28;19961;-73
2022/08/07 03:33:47;;;;;;;;;;;25.90;67.80;;;;;;5113426;28;19998;-73
2022/08/07 03:36:15;;;;;;;;;;;25.90;67.80;;;;;;5114321;28;19916;-74
2022/08/07 03:38:42;;;;;;;;;;;25.90;67.80;;;;;;5113335;28;19919;-74
2022/08/07 03:41:08;;;;;;;;;;;25.90;67.80;;;;;;5115054;28;20048;-74
2022/08/07 03:43:35;;;;;;;;;;;26.00;67.80;;;;;;5114638;28;19919;-74
2022/08/07 03:46:01;;;;;;;;;;;26.00;67.80;;;;;;5114312;28;19919;-74
2022/08/07 03:48:28;;;;;;;;;;;26.00;67.90;;;;;;5114115;28;20277;-74
2022/08/07 03:50:55;;;;;;;;;;;25.90;67.70;;;;;;5114076;28;19908;-74
2022/08/07 03:53:20;;;;;;;;;;;25.90;67.80;;;;;;5114026;28;19908;-74
2022/08/07 03:55:47;;;;;;;;;;;25.90;67.70;;;;;;5114100;28;19954;-75
2022/08/07 03:58:13;;;;;;;;;;;26.00;67.90;;;;;;5114216;28;19907;-74
2022/08/07 04:00:40;;;;;;;;;;;26.00;67.80;;;;;;5114196;28;19918;-74
2022/08/07 04:03:05;;;;;;;;;;;26.00;67.80;;;;;;5114023;28;19912;-74
2022/08/07 04:05:34;;;;;;;;;;;26.00;67.70;;;;;;5113847;28;19965;-74
2022/08/07 04:08:01;;;;;;;;;;;26.00;67.70;;;;;;5112181;28;20011;-78
2022/08/07 04:10:26;;;;;;;;;;;26.00;67.70;;;;;;5114310;28;19907;-73
2022/08/07 04:12:52;;;;;;;;;;;26.00;67.70;;;;;;5113857;28;20433;-74
2022/08/07 04:15:19;;;;;;;;;;;26.00;67.80;;;;;;5114140;28;19953;-74
2022/08/07 04:17:44;;;;;;;;;;;26.10;67.80;;;;;;5117383;28;19912;-74
2022/08/07 04:20:10;;;;;;;;;;;26.10;67.80;;;;;;5116773;28;20307;-74
2022/08/07 04:22:36;;;;;;;;;;;26.10;67.80;;;;;;5116067;28;19912;-74
2022/08/07 04:25:02;;;;;;;;;;;26.10;67.70;;;;;;5115941;28;19926;-76
2022/08/07 04:27:28;;;;;;;;;;;26.20;67.90;;;;;;5115958;28;20006;-74
2022/08/07 04:29:53;;;;;;;;;;;26.20;67.80;;;;;;5117285;28;19908;-73
2022/08/07 04:32:19;;;;;;;;;;;26.10;67.80;;;;;;5117425;28;19908;-75
2022/08/07 04:34:45;;;;;;;;;;;26.20;67.80;;;;;;5116534;28;19912;-75
2022/08/07 04:37:10;;;;;;;;;;;26.20;67.80;;;;;;5115903;28;19923;-75
2022/08/07 04:39:36;;;;;;;;;;;26.20;67.90;;;;;;5115815;28;19956;-75
2022/08/07 04:42:02;;;;;;;;;;;26.30;68.00;;;;;;5116216;28;19908;-75
2022/08/07 04:44:28;;;;;;;;;;;26.20;67.90;;;;;;5116288;28;19974;-76
2022/08/07 04:46:59;;;;;;;;;;;26.30;68.00;;;;;;5116237;28;19984;-76
2022/08/07 04:49:30;;;;;;;;;;;26.30;68.00;;;;;;5116166;28;19912;-76
2022/08/07 04:52:02;;;;;;;;;;;26.30;68.00;;;;;;5116355;28;20312;-76
2022/08/07 04:54:31;;;;;;;;;;;26.30;68.00;;;;;;5117213;28;19918;-75
2022/08/07 04:57:19;;;;;;;;;;;26.40;68.00;;;;;;5116763;28;19943;-77
2022/08/07 04:59:47;;;;;;;;;;;26.40;67.90;;;;;;5116769;28;19915;-76
2022/08/07 05:02:16;;;;;;;;;;;26.40;67.70;;;;;;5117171;28;19908;-76
2022/08/07 05:04:42;;;;;;;;;;;26.40;67.70;;;;;;5116635;28;19912;-75
2022/08/07 05:07:13;;;;;;;;;;;26.40;67.60;;;;;;5117081;28;20259;-77
2022/08/07 05:09:41;;;;;;;;;;;26.40;67.60;;;;;;5116572;28;20384;-77
2022/08/07 05:12:08;;;;;;;;;;;26.40;67.60;;;;;;5116560;28;19923;-77
2022/08/07 05:14:41;;;;;;;;;;;26.40;67.60;;;;;;5116661;28;19915;-77
2022/08/07 05:17:08;;;;;;;;;;;26.40;67.50;;;;;;5115391;28;20045;-77
2022/08/07 05:19:39;;;;;;;;;;;26.40;67.50;;;;;;5116512;28;20311;-76
2022/08/07 05:22:07;;;;;;;;;;;26.50;67.40;;;;;;5116239;28;19908;-76
2022/08/07 05:24:33;;;;;;;;;;;26.50;67.40;;;;;;5116835;28;19911;-77
2022/08/07 05:26:59;;;;;;;;;;;26.50;67.40;;;;;;5115593;28;19916;-76
2022/08/07 05:29:26;;;;;;;;;;;26.50;67.40;;;;;;5116339;28;19912;-77
2022/08/07 05:31:52;;;;;;;;;;;26.50;67.40;;;;;;5116106;28;19914;-76
2022/08/07 05:34:18;;;;;;;;;;;26.50;67.40;;;;;;5116524;28;19911;-76
2022/08/07 05:36:51;;;;;;;;;;;26.50;67.40;;;;;;5114787;28;19924;-77
2022/08/07 05:39:18;;;;;;;;;;;26.60;67.50;;;;;;5116021;28;19907;-77
2022/08/07 05:41:46;;;;;;;;;;;26.50;67.20;;;;;;5116215;28;20002;-77
2022/08/07 05:44:12;;;;;;;;;;;26.60;67.10;;;;;;5116129;28;19915;-76
2022/08/07 05:46:38;;;;;;;;;;;26.60;66.90;;;;;;5116136;28;19957;-78
2022/08/07 05:49:05;;;;;;;;;;;26.60;66.90;;;;;;5116156;28;19914;-75
2022/08/07 05:51:30;;;;;;;;;;;26.70;67.00;;;;;;5115702;28;19955;-75
2022/08/07 05:53:56;;;;;;;;;;;26.70;67.00;;;;;;5114361;28;19908;-77
2022/08/07 05:56:22;;;;;;;;;;;26.70;67.00;;;;;;5115645;28;19908;-76
2022/08/07 05:58:48;;;;;;;;;;;26.70;66.90;;;;;;5115742;28;20017;-76
2022/08/07 06:01:15;;;;;;;;;;;26.70;67.00;;;;;;5115482;28;20006;-76
2022/08/07 06:03:43;;;;;;;;;;;26.70;66.90;;;;;;5115649;28;19918;-76
2022/08/07 06:06:10;;;;;;;;;;;26.80;67.60;;;;;;5114275;28;19915;-76
2022/08/07 06:08:36;;;;;;;;;;;26.80;67.10;;;;;;5115267;28;19912;-76
2022/08/07 06:11:01;;;;;;;;;;;26.80;66.90;;;;;;5115701;28;19914;-76
2022/08/07 06:13:28;;;;;;;;;;;26.80;66.80;;;;;;5115499;28;19908;-76
2022/08/07 06:15:54;;;;;;;;;;;26.80;66.80;;;;;;5115454;28;20374;-76
2022/08/07 06:18:20;;;;;;;;;;;26.90;66.80;;;;;;5115251;28;19907;-75
2022/08/07 06:20:46;;;;;;;;;;;26.90;66.70;;;;;;5115208;28;19908;-76
2022/08/07 06:23:12;;;;;;;;;;;26.90;66.60;;;;;;5115204;28;19937;-76
2022/08/07 06:25:38;;;;;;;;;;;26.90;66.50;;;;;;5115493;28;19912;-76
2022/08/07 06:28:05;;;;;;;;;;;26.90;66.40;;;;;;5115630;28;19938;-76
2022/08/07 06:30:31;;;;;;;;;;;27.00;66.40;;;;;;5115259;28;19908;-77
2022/08/07 06:32:57;;;;;;;;;;;27.00;66.30;;;;;;5113878;28;19914;-77
2022/08/07 06:35:23;;;;;;;;;;;27.00;66.00;;;;;;5115628;28;20014;-77
2022/08/07 06:37:48;;;;;;;;;;;27.00;66.10;;;;;;5115397;28;19928;-77
2022/08/07 06:40:14;;;;;;;;;;;27.00;66.00;;;;;;5115099;28;20352;-76
2022/08/07 06:42:41;;;;;;;;;;;27.00;65.70;;;;;;5115131;28;19915;-75
2022/08/07 06:45:09;;;;;;;;;;;27.10;65.80;;;;;;5113491;28;19923;-76
2022/08/07 06:47:35;;;;;;;;;;;27.00;65.70;;;;;;5114951;28;19907;-76
2022/08/07 06:50:00;;;;;;;;;;;27.10;65.60;;;;;;5114780;28;19977;-77
2022/08/07 06:52:28;;;;;;;;;;;27.10;65.40;;;;;;5113618;28;19951;-76
2022/08/07 06:54:55;;;;;;;;;;;27.10;64.80;;;;;;5115005;28;19934;-76
2022/08/07 06:57:21;;;;;;;;;;;27.10;64.20;;;;;;5115163;28;19942;-76
2022/08/07 06:59:47;;;;;;;;;;;27.20;64.60;;;;;;5114753;28;19977;-75
2022/08/07 07:02:16;;;;;;;;;;;27.20;64.70;;;;;;5115097;28;19908;-76
2022/08/07 07:04:43;;;;;;;;;;;27.20;64.60;;;;;;5114629;28;19911;-75
2022/08/07 07:07:08;;;;;;;;;;;27.30;64.40;;;;;;5114609;28;19981;-76
2022/08/07 07:09:34;;;;;;;;;;;27.20;64.40;;;;;;5115101;28;20358;-76
2022/08/07 07:12:05;;;;;;;;;;;27.30;63.90;;;;;;5114956;28;20019;-76
2022/08/07 07:14:38;;;;;;;;;;;27.30;64.00;;;;;;5114409;28;19907;-76
2022/08/07 07:17:07;;;;;;;;;;;27.30;63.40;;;;;;5114464;28;20430;-77
2022/08/07 07:19:37;;;;;;;;;;;27.30;63.50;;;;;;5113228;28;19908;-76
2022/08/07 07:22:03;;;;;;;;;;;27.40;63.70;;;;;;5114494;28;19907;-76
2022/08/07 07:24:29;;;;;;;;;;;27.30;63.50;;;;;;5114291;28;19915;-76
2022/08/07 07:26:55;;;;;;;;;;;27.40;63.40;;;;;;5114624;28;19912;-75
2022/08/07 07:29:23;;;;;;;;;;;27.40;63.00;;;;;;5114108;28;19908;-77
2022/08/07 07:31:51;;;;;;;;;;;27.40;62.90;;;;;;5114238;28;19912;-77
2022/08/07 07:34:18;;;;;;;;;;;27.40;63.20;;;;;;5114270;28;20006;-77
2022/08/07 07:36:44;;;;;;;;;;;27.40;62.60;;;;;;5114228;28;19957;-77
2022/08/07 07:39:10;;;;;;;;;;;27.40;62.50;;;;;;5114660;28;20268;-76
2022/08/07 07:41:37;;;;;;;;;;;27.40;62.40;;;;;;5114185;28;19915;-76
2022/08/07 07:44:04;;;;;;;;;;;27.40;62.20;;;;;;5114304;28;19934;-76
2022/08/07 07:46:32;;;;;;;;;;;27.50;61.90;;;;;;5114276;28;19912;-77
2022/08/07 07:48:58;;;;;;;;;;;27.40;61.90;;;;;;5114274;28;19951;-75
2022/08/07 07:51:25;;;;;;;;;;;27.50;61.70;;;;;;5116806;28;19907;-76
2022/08/07 07:53:51;;;;;;;;;;;27.50;61.90;;;;;;5118117;28;19999;-76
2022/08/07 07:56:17;;;;;;;;;;;27.50;61.40;;;;;;5118216;28;19908;-77
2022/08/07 07:58:44;;;;;;;;;;;27.50;61.30;;;;;;5117928;28;19914;-77
2022/08/07 08:01:10;;;;;;;;;;;27.50;61.50;;;;;;5117689;28;19951;-76
2022/08/07 08:03:37;;;;;;;;;;;27.50;61.10;;;;;;5118167;28;19912;-76
2022/08/07 08:06:04;;;;;;;;;;;27.50;60.50;;;;;;5117206;28;19912;-76
2022/08/07 08:08:34;;;;;;;;;;;27.50;60.60;;;;;;5118068;28;20388;-76
2022/08/07 08:10:59;;;;;;;;;;;27.50;60.40;;;;;;5118153;28;20293;-76
2022/08/07 08:13:26;;;;;;;;;;;27.50;60.30;;;;;;5118562;28;19908;-76
2022/08/07 08:15:52;;;;;;;;;;;27.50;60.00;;;;;;5117662;28;20361;-76
2022/08/07 08:18:19;;;;;;;;;;;27.50;59.40;;;;;;5116477;28;19907;-77
2022/08/07 08:20:45;;;;;;;;;;;27.60;59.70;;;;;;5117557;28;19907;-77
2022/08/07 08:28:52;;;;;;;;;;;27.70;58.60;;;;;;5108959;28;19911;-77
2022/08/07 08:31:23;;;;;;;;;;;27.70;58.10;;;;;;5117615;28;19915;-76
2022/08/07 08:33:51;;;;;;;;;;;27.70;58.10;;;;;;5117423;28;19912;-77
2022/08/07 08:36:18;;;;;;;;;;;27.70;58.00;;;;;;5116983;28;19912;-77
2022/08/07 08:38:44;;;;;;;;;;;27.70;58.60;;;;;;5117430;28;19908;-77
2022/08/07 08:41:20;;;;;;;;;;;27.70;58.30;;;;;;5117679;28;19934;-77
2022/08/07 08:43:51;;;;;;;;;;;27.80;57.30;;;;;;5115805;28;20288;-77
2022/08/07 08:46:30;;;;;;;;;;;27.70;57.80;;;;;;5109436;28;19916;-78
2022/08/07 08:49:00;;;;;;;;;;;27.80;57.80;;;;;;5110170;28;19920;-78
2022/08/07 08:51:44;;;;;;;;;;;27.80;57.70;;;;;;5112806;28;20401;-71
2022/08/07 08:54:28;;;;;;;;;;;27.80;57.60;;;;;;5117009;28;19912;-79
2022/08/07 08:56:55;;;;;;;;;;;27.80;57.30;;;;;;5109146;28;19912;-76
2022/08/07 08:59:39;;;;;;;;;;;27.90;57.80;;;;;;5114844;28;19915;-74
2022/08/07 09:02:23;;;;;;;;;;;27.90;57.80;;;;;;5106317;28;19919;-73
2022/08/07 09:04:59;;;;;;;;;;;27.90;56.90;;;;;;5113707;28;19947;-74
2022/08/07 09:07:43;;;;;;;;;;;28.00;57.20;;;;;;5115589;28;19981;-73
2022/08/07 09:10:29;;;;;;;;;;;28.10;57.30;;;;;;5113865;28;19916;-74
2022/08/07 09:13:16;;;;;;;;;;;28.20;57.20;;;;;;5106066;28;19908;-74
2022/08/07 09:15:45;;;;;;;;;;;28.30;57.30;;;;;;5115120;28;19961;-73
2022/08/07 09:18:15;;;;;;;;;;;28.40;57.20;;;;;;5115947;28;19907;-74
2022/08/07 09:20:52;;;;;;;;;;;28.40;56.40;;;;;;5116619;28;19907;-73
2022/08/07 09:23:45;;;;;;;;;;;28.50;57.10;;;;;;5116489;28;19912;-74
2022/08/07 09:26:30;;;;;;;;;;;28.50;57.00;;;;;;5115415;28;20273;-75
2022/08/07 09:29:02;;;;;;;;;;;28.60;56.80;;;;;;5115663;28;19908;-74
2022/08/07 09:31:27;;;;;;;;;;;28.70;56.50;;;;;;5115353;28;19915;-73
2022/08/07 09:33:53;;;;;;;;;;;28.80;56.20;;;;;;5116230;28;20340;-74
2022/08/07 09:36:25;;;;;;;;;;;28.80;56.00;;;;;;5115852;28;20018;-74
2022/08/07 09:39:09;;;;;;;;;;;28.80;56.30;;;;;;5116157;28;19915;-75
2022/08/07 09:41:50;;;;;;;;;;;28.80;56.30;;;;;;5116459;28;20282;-74
2022/08/07 09:44:20;;;;;;;;;;;28.90;55.90;;;;;;5115898;28;19916;-74
2022/08/07 09:46:57;;;;;;;;;;;28.80;56.00;;;;;;5114754;28;19912;-74
2022/08/07 09:49:37;;;;;;;;;;;28.90;56.30;;;;;;5114695;28;19958;-74
2022/08/07 09:52:15;;;;;;;;;;;28.90;56.10;;;;;;5116184;28;19922;-74
2022/08/07 09:54:53;;;;;;;;;;;28.90;55.40;;;;;;5115716;28;19912;-73
2022/08/07 09:57:31;;;;;;;;;;;28.90;55.70;;;;;;5116084;28;20242;-74
2022/08/07 10:00:07;;;;;;;;;;;29.00;56.00;;;;;;5114107;28;19912;-73
2022/08/07 10:02:35;;;;;;;;;;;29.00;55.80;;;;;;5115581;28;19908;-73
2022/08/07 10:05:06;;;;;;;;;;;29.00;55.80;;;;;;5115595;28;19912;-73
2022/08/07 10:07:41;;;;;;;;;;;29.10;55.90;;;;;;5115838;28;19918;-73
2022/08/07 10:10:27;;;;;;;;;;;29.10;55.90;;;;;;5115313;28;19912;-74
2022/08/07 10:13:11;;;;;;;;;;;29.10;55.30;;;;;;5115053;28;19907;-73
2022/08/07 10:15:48;;;;;;;;;;;29.10;55.70;;;;;;5115687;28;19907;-74
2022/08/07 10:18:32;;;;;;;;;;;29.10;55.70;;;;;;5115741;28;20381;-73
2022/08/07 10:21:07;;;;;;;;;;;29.20;55.80;;;;;;5115350;28;19908;-74
2022/08/07 10:23:38;;;;;;;;;;;29.20;55.80;;;;;;5115175;28;20399;-73
2022/08/07 10:26:19;;;;;;;;;;;29.20;55.30;;;;;;5115246;28;19912;-73
2022/08/07 10:28:57;;;;;;;;;;;29.20;55.50;;;;;;5113900;28;19908;-75
2022/08/07 10:31:25;;;;;;;;;;;29.30;55.50;;;;;;5114759;28;19914;-73
2022/08/07 10:33:56;;;;;;;;;;;29.30;55.10;;;;;;5113897;28;20281;-74
2022/08/07 10:36:30;;;;;;;;;;;29.30;54.90;;;;;;5115217;28;19920;-73
2022/08/07 10:38:58;;;;;;;;;;;29.30;55.10;;;;;;5114941;28;19915;-72
2022/08/07 10:41:27;;;;;;;;;;;29.30;55.10;;;;;;5114650;28;19908;-73
2022/08/07 10:43:58;;;;;;;;;;;29.40;55.20;;;;;;5114544;28;19912;-73
2022/08/07 10:46:24;;;;;;;;;;;29.40;55.30;;;;;;5114419;28;20314;-73
2022/08/07 10:49:16;;;;;;;;;;;29.40;55.20;;;;;;5114914;28;19908;-73
2022/08/07 10:51:42;;;;;;;;;;;29.50;55.40;;;;;;5113593;28;20281;-73
2022/08/07 10:54:14;;;;;;;;;;;29.50;55.30;;;;;;5113426;28;19908;-73
2022/08/07 10:56:58;;;;;;;;;;;29.50;55.40;;;;;;5115105;28;20002;-74
2022/08/07 10:59:27;;;;;;;;;;;29.50;55.40;;;;;;5114768;28;19908;-73
2022/08/07 11:01:56;;;;;;;;;;;29.60;55.50;;;;;;5114454;28;19907;-72
2022/08/07 11:04:40;;;;;;;;;;;29.60;55.40;;;;;;5114254;28;20269;-75
2022/08/07 11:07:31;;;;;;;;;;;29.60;55.40;;;;;;5114681;28;19922;-76
2022/08/07 11:10:00;;;;;;;;;;;29.60;55.10;;;;;;5113449;28;19950;-74
2022/08/07 11:12:37;;;;;;;;;;;29.70;55.20;;;;;;5114413;28;19907;-73
2022/08/07 11:15:12;;;;;;;;;;;29.70;55.30;;;;;;5114596;28;20353;-73
2022/08/07 11:17:37;;;;;;;;;;;29.70;55.20;;;;;;5114338;28;20049;-73
2022/08/07 11:20:12;;;;;;;;;;;29.80;55.30;;;;;;5114422;28;19957;-72
2022/08/07 11:22:41;;;;;;;;;;;29.80;55.30;;;;;;5113321;28;19908;-74
2022/08/07 11:25:12;;;;;;;;;;;29.80;55.30;;;;;;5114858;28;20280;-73
2022/08/07 11:27:44;;;;;;;;;;;29.90;55.40;;;;;;5118914;28;19912;-74
2022/08/07 11:30:23;;;;;;;;;;;29.90;55.30;;;;;;5117456;28;19965;-75
2022/08/07 11:33:10;;;;;;;;;;;29.90;55.40;;;;;;5117545;28;19920;-74
2022/08/07 11:35:45;;;;;;;;;;;29.90;55.50;;;;;;5119013;28;19935;-75
2022/08/07 11:38:10;;;;;;;;;;;29.90;55.50;;;;;;5119081;28;20276;-74
2022/08/07 11:40:45;;;;;;;;;;;30.00;55.60;;;;;;5118430;28;19908;-73
2022/08/07 11:43:16;;;;;;;;;;;30.00;55.70;;;;;;5118247;28;20307;-74
2022/08/07 11:45:57;;;;;;;;;;;30.00;55.80;;;;;;5118599;28;20277;-74
2022/08/07 11:48:31;;;;;;;;;;;30.00;56.00;;;;;;5118143;28;19908;-74
2022/08/07 11:51:17;;;;;;;;;;;30.10;56.20;;;;;;5118237;28;19908;-74
2022/08/07 11:53:49;;;;;;;;;;;30.10;56.00;;;;;;5117728;28;20002;-74
2022/08/07 11:56:36;;;;;;;;;;;30.10;56.10;;;;;;5116686;28;19908;-73
2022/08/07 11:59:14;;;;;;;;;;;30.10;56.10;;;;;;5116821;28;20289;-73
2022/08/07 12:01:58;;;;;;;;;;;30.20;56.50;;;;;;5118057;28;19908;-73
2022/08/07 12:04:37;;;;;;;;;;;30.20;56.40;;;;;;5117790;28;19912;-73
2022/08/07 12:07:23;;;;;;;;;;;30.20;56.50;;;;;;5116363;28;20330;-73
2022/08/07 12:10:04;;;;;;;;;;;30.30;56.50;;;;;;5115946;28;19916;-73
2022/08/07 12:12:40;;;;;;;;;;;30.30;56.50;;;;;;5117761;28;20357;-73
2022/08/07 12:15:19;;;;;;;;;;;30.30;56.40;;;;;;5116618;28;19918;-73
2022/08/07 12:17:48;;;;;;;;;;;30.40;56.50;;;;;;5118079;28;19996;-74
2022/08/07 12:20:22;;;;;;;;;;;30.40;56.50;;;;;;5116814;28;20337;-73
2022/08/07 12:23:03;;;;;;;;;;;30.40;56.50;;;;;;5117347;28;20358;-74
2022/08/07 12:28:22;;;;;;;;;;;30.50;56.30;;;;;;5117910;28;19915;-74
2022/08/07 12:30:49;;;;;;;;;;;30.60;56.30;;;;;;5116541;28;20361;-74
2022/08/07 12:33:17;;;;;;;;;;;30.60;56.20;;;;;;5117339;28;19919;-77
2022/08/07 12:35:48;;;;;;;;;;;30.60;56.10;;;;;;5115919;28;20365;-72
2022/08/07 12:38:14;;;;;;;;;;;30.70;56.00;;;;;;5115884;28;20018;-72
2022/08/07 12:40:41;;;;;;;;;;;30.70;55.70;;;;;;5117034;28;19958;-74
2022/08/07 12:43:08;;;;;;;;;;;30.80;55.70;;;;;;5117104;28;19915;-74
2022/08/07 12:45:53;;;;;;;;;;;30.80;56.20;;;;;;5117174;28;19919;-74
2022/08/07 12:48:51;;;;;;;;;;;30.90;55.50;;;;;;5117008;28;19963;-72
2022/08/07 12:51:18;;;;;;;;;;;31.00;55.10;;;;;;5104482;28;19961;-71
2022/08/07 12:53:44;;;;;;;;;;;31.10;54.90;;;;;;5117005;28;19976;-73
2022/08/07 12:56:26;;;;;;;;;;;31.20;54.70;;;;;;5116885;28;19912;-73
2022/08/07 12:58:52;;;;;;;;;;;31.30;54.40;;;;;;5116842;28;19958;-71
2022/08/07 13:01:33;;;;;;;;;;;31.30;53.90;;;;;;5115368;28;19962;-73
2022/08/07 13:04:17;;;;;;;;;;;31.40;53.80;;;;;;5115723;28;20373;-73
2022/08/07 13:06:52;;;;;;;;;;;31.50;53.50;;;;;;5116859;28;19918;-73
2022/08/07 13:09:30;;;;;;;;;;;31.60;53.30;;;;;;5115507;28;19912;-74
2022/08/07 13:12:10;;;;;;;;;;;31.70;52.90;;;;;;5117185;28;19908;-72
2022/08/07 13:14:51;;;;;;;;;;;31.80;52.60;;;;;;5116784;28;20277;-73
2022/08/07 13:17:26;;;;;;;;;;;32.00;52.30;;;;;;5116886;28;19907;-73
2022/08/07 13:20:11;;;;;;;;;;;32.10;51.90;;;;;;5116492;28;19915;-73
2022/08/07 13:22:57;;;;;;;;;;;32.30;51.80;;;;;;5116470;28;19908;-73
2022/08/07 13:25:38;;;;;;;;;;;32.50;51.70;;;;;;5107386;28;20366;-73
2022/08/07 13:28:11;;;;;;;;;;;32.70;51.20;;;;;;5116272;28;19915;-73
2022/08/07 13:30:39;;;;;;;;;;;32.80;51.00;;;;;;5116772;28;19907;-74
2022/08/07 13:33:23;;;;;;;;;;;33.00;50.90;;;;;;5114944;28;19915;-73
2022/08/07 13:35:51;;;;;;;;;;;33.30;50.90;;;;;;5116512;28;19912;-73
2022/08/07 13:38:20;;;;;;;;;;;33.70;51.20;;;;;;5115010;28;19959;-73
2022/08/07 13:40:51;;;;;;;;;;;34.00;51.20;;;;;;5116169;28;19915;-74
2022/08/07 13:43:18;;;;;;;;;;;34.50;51.40;;;;;;5115993;28;19915;-73
2022/08/07 13:45:47;;;;;;;;;;;35.00;51.40;;;;;;5115954;28;19918;-73
2022/08/07 13:48:13;;;;;;;;;;;35.50;51.60;;;;;;5115426;28;19908;-73
2022/08/07 13:50:40;;;;;;;;;;;35.90;51.40;;;;;;5116074;28;20002;-73
2022/08/07 13:53:06;;;;;;;;;;;36.20;50.90;;;;;;5115616;28;20027;-74
2022/08/07 13:55:32;;;;;;;;;;;36.60;51.10;;;;;;5116137;28;19914;-73
2022/08/07 14:00:50;;;;;;;;;;;37.10;49.80;;;;;;5116193;28;20266;-73
2022/08/07 14:03:16;;;;;;;;;;;37.50;49.00;;;;;;5115840;28;19931;-73
2022/08/07 14:05:42;;;;;;;;;;;37.70;48.50;;;;;;5115337;28;19911;-72
2022/08/07 14:08:09;;;;;;;;;;;37.80;47.60;;;;;;5115724;28;19958;-73
2022/08/07 14:10:35;;;;;;;;;;;37.90;47.00;;;;;;5115432;28;20071;-72
2022/08/07 14:13:02;;;;;;;;;;;37.90;46.60;;;;;;5115570;28;19962;-73
2022/08/07 14:15:35;;;;;;;;;;;38.00;46.30;;;;;;5115379;28;19908;-73
2022/08/07 14:18:03;;;;;;;;;;;38.00;46.20;;;;;;5115446;28;19942;-72
2022/08/07 14:20:31;;;;;;;;;;;37.90;45.60;;;;;;5115047;28;19919;-73
2022/08/07 14:23:08;;;;;;;;;;;37.80;45.40;;;;;;5115268;28;19908;-72
2022/08/07 14:25:35;;;;;;;;;;;37.70;45.20;;;;;;5114982;28;19926;-72
2022/08/07 14:28:06;;;;;;;;;;;37.50;45.30;;;;;;5114923;28;19994;-75
2022/08/07 14:30:33;;;;;;;;;;;37.40;45.10;;;;;;5114851;28;19915;-73
2022/08/07 14:33:03;;;;;;;;;;;37.30;45.40;;;;;;5115069;28;19908;-74
2022/08/07 14:35:30;;;;;;;;;;;37.10;45.40;;;;;;5115048;28;19916;-74
2022/08/07 14:37:56;;;;;;;;;;;37.00;45.40;;;;;;5114886;28;19924;-74
2022/08/07 14:40:23;;;;;;;;;;;36.80;45.60;;;;;;5115380;28;19915;-74
2022/08/07 14:43:24;;;;;;;;;;;36.70;45.50;;;;;;5114878;28;19912;-75